Accueil
METAR-TAF:

METAR-TAF

Aéroports :

Montichiari

Brescia, Italie

latitude: 45-24-02N, longitude: 010-18-59E, altitude: 104 m

Observation

Le bulletin a été fait il y a 44 minutes, à 14:20 UTC
Vent 2 kt de direction variable
Température 6°C
Humidité 70%
Pression 1014 hPa
Ciel couvert à une hauteur de 4600 ft

METAR: LIPO 011420Z AUTO VRB02KT //// // OVC046 06/01 Q1014

Heure: 16:04 (15:04 UTC)

Prévision

Le bulletin a été fait il y a 4 heures et 4 minutes, à 11:00 UTC
Prévision valable du 01 à 12 UTC au 02 à 12 UTC
Vent 5 kt de direction variable
Visibilité: 6000 m
Nuages fragmentés à une hauteur de 2500 ft
Evoluant progressivement
du 02 à 00 UTC au 02 à 02 UTC
Visibilité: 4000 m
pluie

TAF: LIPO 011100Z 0112/0212 VRB05KT 6000 BKN025 BECMG 0200/0202 4000 RA

Observations et prévisions météorologiques de plus de 4000 aéroports (messages METAR et TAF).

Les stations disponibles sont représentées par des disques jaunes et rouges sur la carte.

Passer la souris dessus pour voir le nom de la station.

Cliquer dessus pour voir les observations et prévisions météorologiques.

Pour changer de carte: cliquez sur les boutons verts avec une croix noire pour zoomer, sur le bouton vert avec un tiret pour effectuer un zoom arrière, ou sur les flèches vertes pour les cartes adjacentes.


METAR-TAF: